Domov               UVHVVR             MKGP            O straneh              
ZDRAVSTVENO VARSTVO RASTLIN
  MREŽA AGROMET. POSTAJ
 ► PROGNOSTIČNA OBVESTILA
AGROMETEOROLOŠKI PODATKI -
ARSO
OBVLADOVANJE TVEGANJ ZARADI
NEUGODNIH VREMENSKIH RAZMER
  ► NARAVNE NESREČE
  ► SUŠA/MOČA
  ► NAMAKANJE
  ► ŽLED (gozdarstvo)
KARTOGRAFSKI PRIKAZI
SPLETNE POVEZAVE
PROJEKTI IN PUBLIKACIJE

AGROMETEOROLOŠKA MREŽA: VREMENSKE POSTAJE IN FENOLOŠKA OPAZOVANJA

Pregled podatkov za lokacijo Ojstriška vas, meteorološka postaja 24361

Pregled senzorjev na lokaciji

ID Ime Zadnja
vrednost
Datum
zadnje
spremembe
Tip
senzorja
2036 Relativna vlaga 2 m (% RH) 45,05 % RH 19.10.2017 15:29 Generic 0 - 100 %
2037 Temperatura 2 m ( °C) 21,32 °C 19.10.2017 15:30 Generic -40 - +60 °C
2038 Omočenost lista (U) 0 U 19.10.2017 15:30 A730WET
4058 Padavine 0.2 mm (mm) 0 mm 19.10.2017 15:30 Generic 0.2 mm

Pregled podatkov zadnjih 24 ur

Zap.
št.
Datum in čas Ojstriška vas
Omočenost
lista
Padavine
0.2
mm
Relativna
vlaga
2
m
Temperatura
2
m
0 19.10.2017 14:30 0 0 45,05 21,32
1 19.10.2017 14:00 0 0 45,25 21,32
2 19.10.2017 13:30 0 0 46,03 21,15
3 19.10.2017 13:00 0 0 46,37 20,85
4 19.10.2017 12:30 0 0 46,45 20,81
5 19.10.2017 12:00 0 0 45,59 20,76
6 19.10.2017 11:30 0 0 46,69 20,2
7 19.10.2017 11:00 0 0 52,23 18,53
8 19.10.2017 10:30 0 0 54,58 17,46
9 19.10.2017 10:00 0 0 56,68 16,63
10 19.10.2017 09:30 0 0 60,32 15,24
11 19.10.2017 09:00 0 0 63,2 14,07
12 19.10.2017 08:30 10 0 72,43 12,43
13 19.10.2017 08:00 10 0 86,2 8,99
14 19.10.2017 07:30 10 0 94,43 5,96
15 19.10.2017 07:00 10 0 96,12 4,32
16 19.10.2017 06:30 10 0 95,26 4,91
17 19.10.2017 06:00 9 0 91,01 5,71
18 19.10.2017 05:30 3 0 88,06 6,94
19 19.10.2017 05:00 1 0 83,79 7,64
20 19.10.2017 04:30 1 0 78,29 8,84
21 19.10.2017 04:00 0 0 75,6 9,57
22 19.10.2017 03:30 0 0 73,85 9,96
23 19.10.2017 03:00 0 0 72,72 10,33
24 19.10.2017 02:30 0 0 69,43 11,16
25 19.10.2017 02:00 0 0 66,94 11,99
26 19.10.2017 01:30 0 0 71,18 11,38
27 19.10.2017 01:00 0 0 66,84 12,43
28 19.10.2017 00:30 0 0 69,47 11,77
29 19.10.2017 00:00 0 0 68,4 12,38
30 18.10.2017 23:30 0 0 65,76 13,55
31 18.10.2017 23:00 0 0 65,3 14,21
32 18.10.2017 22:30 0 0 62,17 15,56
33 18.10.2017 22:00 0 0 62,47 15,9
34 18.10.2017 21:30 0 0 62,32 16,19
35 18.10.2017 21:00 0 0 62,17 16,39
36 18.10.2017 20:30 0 0 60,88 16,7
37 18.10.2017 20:00 0 0 59,39 17,02
38 18.10.2017 19:30 0 0 57,58 17,22
39 18.10.2017 19:00 0 0 55,46 17,39
40 18.10.2017 18:30 0 0 51,43 17,7
41 18.10.2017 18:00 0 0 49,6 17,97
42 18.10.2017 17:30 0 0 48,84 18,27
43 18.10.2017 17:00 0 0 45,93 19,02
44 18.10.2017 16:30 0 0 43,52 20
© 2011 Ministrstvo za kmetijstvo, gozdarstvo in prehrano. Vse pravice pridržane.